Champion, NE (69023)

4:54 AM MDT on August 05, 2015 (GMT -0600)
Northwest Chase County | | Change Station
CLOSE
Current Station
Personal Weather Station
Location: Venango, NE
Elevation: 3494 ft
Nearby Weather Stations

Elev 3494 ft 40.67 °N, 101.91 °W | Updated 0 second ago

Clear
Clear
55.6 °F
Feels Like 55.6 °F
N
3.2
Wind Variable Wind from West

Today
High -- | Low -- °F
--% Chance of Precip.
Yesterday
High -- | Low -- °F
Precip. -- in
5:47 AM 7:57 PM
Waning Gibbous, 68% visible
Pressure 30.04 in
Visibility 10.0 miles
Clouds Few 300 ft
Dew Point 55 °F
Humidity 99%
Rainfall 0.00 in
Snow Depth Not available.
UV 0 out of 12
Pollen 7.90 out of 12
Air Quality Not available.
Flu Activity Not available.
SPECI KIML 051051Z AUTO VRB04KT 10SM FEW003 14/13 A3004 RMK AO2

More Conditions Fewer Conditions

Pressure 30.04 in
Visibility 10.0 miles
Clouds Few 300 ft
Dew Point 55 °F
Humidity 99%
Rainfall 0.00 in
Snow Depth Not available.
UV 0 out of 12
Pollen 7.90 out of 12
Air Quality Not available.
Flu Activity Not available.
SPECI KIML 051051Z AUTO VRB04KT 10SM FEW003 14/13 A3004 RMK AO2

More Conditions Fewer Conditions

Nowcast | as of 5:14 am CDT on August 5, 2015

Areas of fog continue over western Nebraska early this morning. Visibilities west of Highway 83 were generally 3 to 5 miles. East of Highway 83 visibilities ranged from a half mile to 3 miles. Visibilities may change quickly over a short distance. If you are traveling along Interstate 80 between Brady and Big Springs be prepared for reduced visibilities.

×

10-Day Weather Forecast

×

Almanac

Astronomy

Aug. 05, 2015 Rise Set
Actual Time
Civil Twilight
Nautical Twilight
Astronomical Twilight
Moon
Length of Visible Light
Length of Day
Tomorrow will be .
, % of the Moon is Illuminated

Today's Extremes

State Highs State Lows

Community

WunderPhotos

Upload Photos

1,844,115 photos uploaded!

WunderBlogs® & News

Nearby

Air Quality

  Air Quality AQ Index Pollutant
Not available.

Snow Depth

Station Depth Elevation

Earthquake Activity

City Distance Mag. Time & Date
Minimum magnitude displayed is 2.5.

Coastal Water Temperatures

Place Temperature

Stations

Nearby Weather Stations

Station Location Temp. Windchill Dew Point Humidity Wind Precip. Elev Updated Type